Time;durP1;ratioP1;P1;durP2;ratioP2;P2;SDS_P1;SDS_P2;PMS_P1;PMS_P2;Temp;Humidity;BMP_temperature;BMP_pressure;BME280_temperature;BME280_humidity;BME280_pressure;Samples;Min_cycle;Max_cycle;Signal;HPM_P1;HPM_P2
2022/01/28 00:00:28;;;;;;;0.60;0.60;;;3.70;99.90;;;;;;5135317;27;20088;-75
2022/01/28 00:03:08;;;;;;;0.50;0.50;;;3.70;99.90;;;;;;5116674;27;20043;-77
2022/01/28 00:05:36;;;;;;;0.60;0.60;;;3.70;99.90;;;;;;5134797;27;20047;-75
2022/01/28 00:08:03;;;;;;;0.60;0.60;;;3.70;99.90;;;;;;5135164;27;20042;-77
2022/01/28 00:10:29;;;;;;;0.50;0.50;;;3.70;99.90;;;;;;5134714;27;20045;-77
2022/01/28 00:37:49;;;;;;;0.60;0.60;;;3.90;99.90;;;;;;5138528;27;20047;-77
2022/01/28 00:40:11;;;;;;;0.60;0.60;;;4.00;99.90;;;;;;5138438;27;20061;-75
2022/01/28 00:42:36;;;;;;;0.60;0.60;;;4.00;99.90;;;;;;5138576;27;20035;-78
2022/01/28 00:45:02;;;;;;;0.60;0.60;;;4.00;99.90;;;;;;5138407;27;20075;-74
2022/01/28 00:47:28;;;;;;;0.60;0.60;;;4.00;99.90;;;;;;5138539;27;20043;-76
2022/01/28 00:49:53;;;;;;;0.60;0.60;;;3.60;99.90;;;;;;5138603;27;20058;-76
2022/01/28 00:52:19;;;;;;;0.60;0.60;;;4.30;99.90;;;;;;5138639;27;20043;-75
2022/01/28 00:54:44;;;;;;;0.60;0.60;;;4.10;99.90;;;;;;5120447;27;20051;-75
2022/01/28 00:57:10;;;;;;;4.68;4.38;;;4.10;99.90;;;;;;5138349;27;20052;-78
2022/01/28 00:59:36;;;;;;;0.60;0.60;;;4.10;99.90;;;;;;5138350;27;20183;-76
2022/01/28 01:02:01;;;;;;;0.60;0.60;;;4.10;99.90;;;;;;5138251;27;20054;-75
2022/01/28 01:04:27;;;;;;;0.60;0.60;;;4.10;99.90;;;;;;5138254;27;20039;-77
2022/01/28 01:06:52;;;;;;;0.60;0.60;;;4.10;99.90;;;;;;5138205;27;20125;-77
2022/01/28 01:09:18;;;;;;;0.68;0.68;;;4.10;99.90;;;;;;5138201;27;20107;-76
2022/01/28 01:11:44;;;;;;;0.60;0.60;;;4.10;99.90;;;;;;5138088;27;20487;-77
2022/01/28 01:14:09;;;;;;;0.60;0.60;;;4.10;99.90;;;;;;5138076;27;20069;-76
2022/01/28 01:16:55;;;;;;;0.60;0.60;;;4.20;99.90;;;;;;5137892;27;20039;-77
2022/01/28 01:19:23;;;;;;;0.60;0.60;;;4.10;99.90;;;;;;5137749;27;20050;-75
2022/01/28 01:21:55;;;;;;;0.60;0.60;;;4.20;99.90;;;;;;5137891;27;20050;-75
2022/01/28 01:24:23;;;;;;;0.50;0.50;;;4.20;99.90;;;;;;5137772;27;20043;-74
2022/01/28 01:26:48;;;;;;;0.50;0.50;;;4.20;99.90;;;;;;5137758;27;20054;-76
2022/01/28 01:29:17;;;;;;;0.50;0.50;;;4.20;99.90;;;;;;5119439;27;20390;-77
2022/01/28 01:31:43;;;;;;;0.60;0.60;;;4.60;99.90;;;;;;5137632;27;20147;-77
2022/01/28 01:34:14;;;;;;;0.60;0.60;;;4.20;99.90;;;;;;5137567;27;20483;-76
2022/01/28 01:36:40;;;;;;;0.60;0.60;;;4.30;99.90;;;;;;5137594;27;20043;-77
2022/01/28 01:39:09;;;;;;;0.60;0.60;;;4.20;99.90;;;;;;5136458;27;20127;-77
2022/01/28 01:41:46;;;;;;;0.50;0.50;;;4.20;99.90;;;;;;5137198;27;20074;-75
2022/01/28 01:44:28;;;;;;;0.50;0.50;;;4.20;99.90;;;;;;5137816;27;20093;-76
2022/01/28 01:52:00;;;;;;;0.60;0.60;;;4.20;99.90;;;;;;5137408;27;20047;-76
2022/01/28 01:52:39;;;;;;;0.60;0.60;;;4.30;99.90;;;;;;5137317;27;20055;-76
2022/01/28 01:55:07;;;;;;;0.60;0.60;;;4.20;99.90;;;;;;5137283;27;20041;-76
2022/01/28 01:57:33;;;;;;;0.60;0.60;;;4.20;99.90;;;;;;5137151;27;20130;-76
2022/01/28 01:59:59;;;;;;;0.60;0.60;;;4.20;99.90;;;;;;5137251;27;20050;-75
2022/01/28 02:02:25;;;;;;;0.60;0.60;;;4.20;99.90;;;;;;5137188;27;20047;-75
2022/01/28 02:04:50;;;;;;;0.60;0.60;;;4.20;99.90;;;;;;5136692;27;20039;-75
2022/01/28 02:07:16;;;;;;;0.50;0.50;;;4.00;99.90;;;;;;5137016;27;20053;-75
2022/01/28 02:09:42;;;;;;;0.60;0.60;;;4.20;99.90;;;;;;5136993;27;20047;-76
2022/01/28 02:12:09;;;;;;;0.60;0.60;;;4.20;99.90;;;;;;5137042;27;20054;-77
2022/01/28 02:14:35;;;;;;;0.60;0.60;;;4.20;99.90;;;;;;5137219;27;20416;-77
2022/01/28 02:17:01;;;;;;;0.60;0.60;;;4.20;99.90;;;;;;5136734;27;20091;-77
2022/01/28 02:19:28;;;;;;;0.60;0.60;;;4.30;99.90;;;;;;5136743;27;20070;-76
2022/01/28 02:21:53;;;;;;;0.60;0.60;;;4.40;99.90;;;;;;5136436;27;20047;-76
2022/01/28 02:24:44;;;;;;;0.60;0.60;;;4.40;99.90;;;;;;5137199;27;20046;-77
2022/01/28 02:27:06;;;;;;;0.60;0.60;;;4.50;99.90;;;;;;5135936;27;20082;-76
2022/01/28 02:29:35;;;;;;;0.60;0.60;;;4.50;99.90;;;;;;5136489;27;20112;-77
2022/01/28 02:32:04;;;;;;;0.60;0.60;;;4.50;99.90;;;;;;5136469;27;20134;-75
2022/01/28 02:34:30;;;;;;;0.50;0.50;;;4.40;99.90;;;;;;5136474;27;20116;-77
2022/01/28 02:36:56;;;;;;;0.60;0.60;;;4.40;99.90;;;;;;5136499;27;20039;-76
2022/01/28 02:39:22;;;;;;;0.60;0.60;;;4.40;99.90;;;;;;5136434;27;20039;-77
2022/01/28 02:41:52;;;;;;;0.68;0.68;;;4.70;99.90;;;;;;5136386;27;20376;-78
2022/01/28 02:44:23;;;;;;;0.60;0.60;;;4.40;99.90;;;;;;5136210;27;20079;-76
2022/01/28 02:46:56;;;;;;;0.50;0.50;;;4.40;99.90;;;;;;5136299;27;20035;-76
2022/01/28 02:49:25;;;;;;;0.60;0.60;;;4.40;99.90;;;;;;5135583;27;20055;-76
2022/01/28 02:51:51;;;;;;;0.55;0.55;;;4.40;99.90;;;;;;5136086;27;20495;-77
2022/01/28 02:54:18;;;;;;;0.60;0.60;;;4.40;99.90;;;;;;5136048;27;20085;-77
2022/01/28 02:56:52;;;;;;;;;;;4.40;99.90;;;;;;5136300;27;20058;-76
2022/01/28 02:59:18;;;;;;;0.60;0.60;;;4.50;99.90;;;;;;5117989;27;19972;-77
2022/01/28 03:01:44;;;;;;;0.50;0.50;;;4.50;99.90;;;;;;5135882;27;20051;-76
2022/01/28 03:04:16;;;;;;;0.57;0.57;;;4.50;99.90;;;;;;5135888;27;20039;-75
2022/01/28 03:06:41;;;;;;;0.50;0.50;;;4.50;99.90;;;;;;5135884;27;20051;-76
2022/01/28 03:09:20;;;;;;;0.60;0.60;;;4.50;99.90;;;;;;5135855;27;20086;-77
2022/01/28 03:11:57;;;;;;;0.60;0.60;;;4.50;99.90;;;;;;5135813;27;20054;-75
2022/01/28 03:14:37;;;;;;;0.50;0.50;;;4.50;99.90;;;;;;5136067;27;20035;-77
2022/01/28 03:17:13;;;;;;;1.40;1.30;;;4.60;99.90;;;;;;5135942;27;20406;-75
2022/01/28 03:19:52;;;;;;;0.60;0.60;;;4.60;99.90;;;;;;5135665;27;20050;-75
2022/01/28 03:22:18;;;;;;;0.70;0.70;;;4.60;99.90;;;;;;5135664;27;20093;-77
2022/01/28 03:24:47;;;;;;;8.25;4.75;;;4.70;99.90;;;;;;5135454;27;20078;-76
2022/01/28 03:27:21;;;;;;;1.08;0.98;;;4.70;99.90;;;;;;5135376;27;20092;-75
2022/01/28 03:29:46;;;;;;;0.50;0.50;;;4.70;99.90;;;;;;5135511;27;20121;-75
2022/01/28 03:32:12;;;;;;;0.60;0.60;;;4.70;99.90;;;;;;5135266;27;20183;-76
2022/01/28 03:34:38;;;;;;;0.55;0.55;;;4.70;99.90;;;;;;5135341;27;20431;-74
2022/01/28 03:37:05;;;;;;;0.60;0.60;;;4.70;99.90;;;;;;5135390;27;20083;-77
2022/01/28 03:39:31;;;;;;;0.60;0.60;;;4.70;99.90;;;;;;5135451;27;20043;-77
2022/01/28 03:41:56;;;;;;;0.50;0.50;;;4.70;99.90;;;;;;5135208;27;20592;-75
2022/01/28 03:44:22;;;;;;;0.60;0.60;;;4.60;99.90;;;;;;5135080;27;20367;-76
2022/01/28 03:46:47;;;;;;;0.60;0.60;;;4.60;99.90;;;;;;5135254;27;20039;-77
2022/01/28 03:49:13;;;;;;;0.60;0.60;;;4.50;99.90;;;;;;5135057;27;20054;-76
2022/01/28 03:51:39;;;;;;;0.60;0.60;;;4.50;99.90;;;;;;5135198;27;20038;-75
2022/01/28 03:54:04;;;;;;;0.60;0.60;;;4.50;99.90;;;;;;5135034;27;20035;-75
2022/01/28 03:56:30;;;;;;;0.60;0.60;;;4.40;99.90;;;;;;5134942;27;20096;-78
2022/01/28 03:58:55;;;;;;;0.60;0.60;;;4.40;99.90;;;;;;5134870;27;20079;-77
2022/01/28 04:01:27;;;;;;;2.50;0.80;;;4.40;99.90;;;;;;5134188;27;20406;-76
2022/01/28 04:11:51;;;;;;;3.10;2.15;;;4.50;99.90;;;;;;5135013;27;20051;-75
2022/01/28 04:14:37;;;;;;;0.50;0.50;;;4.50;99.90;;;;;;5134755;27;20076;-78
2022/01/28 04:19:33;;;;;;;0.50;0.50;;;4.50;99.90;;;;;;5134529;28;20498;-76
2022/01/28 04:21:59;;;;;;;0.57;0.57;;;4.50;99.90;;;;;;5134659;28;20050;-74
2022/01/28 04:24:24;;;;;;;0.60;0.60;;;4.80;99.90;;;;;;5134495;28;20046;-77
2022/01/28 04:26:50;;;;;;;0.50;0.50;;;4.50;99.90;;;;;;5134542;28;20039;-75
2022/01/28 04:29:16;;;;;;;0.60;0.60;;;4.20;99.90;;;;;;5134576;28;20095;-76
2022/01/28 04:31:45;;;;;;;0.60;0.60;;;4.50;99.90;;;;;;5134585;28;20043;-76
2022/01/28 04:34:11;;;;;;;0.50;0.50;;;4.40;99.90;;;;;;5134279;28;20487;-77
2022/01/28 04:36:44;;;;;;;0.50;0.50;;;4.40;99.90;;;;;;5134553;28;20051;-77
2022/01/28 04:39:26;;;;;;;0.50;0.50;;;4.30;99.90;;;;;;5134566;28;20047;-76
2022/01/28 04:42:05;;;;;;;0.60;0.60;;;4.30;99.90;;;;;;5134568;28;20047;-76
2022/01/28 04:44:46;;;;;;;0.55;0.55;;;4.30;99.90;;;;;;5134505;28;20049;-77
2022/01/28 04:47:22;;;;;;;0.50;0.50;;;4.20;99.90;;;;;;5134719;28;20054;-76
2022/01/28 04:57:52;;;;;;;0.60;0.60;;;3.90;99.90;;;;;;5134586;28;20055;-76
2022/01/28 05:00:33;;;;;;;0.60;0.60;;;3.90;99.90;;;;;;5134242;28;20062;-77
2022/01/28 05:03:28;;;;;;;0.60;0.60;;;3.90;99.90;;;;;;5134661;28;20108;-77
2022/01/28 05:25:03;;;;;;;0.60;0.60;;;3.80;99.90;;;;;;5137559;27;20051;-77
2022/01/28 05:27:20;;;;;;;0.60;0.60;;;3.80;99.90;;;;;;5137544;27;20124;-75
2022/01/28 05:29:46;;;;;;;0.60;0.60;;;3.80;99.90;;;;;;5137709;27;20039;-75
2022/01/28 05:32:12;;;;;;;0.60;0.60;;;3.80;99.90;;;;;;5137631;27;20039;-78
2022/01/28 05:34:39;;;;;;;0.60;0.60;;;3.80;99.90;;;;;;5137608;27;20497;-75
2022/01/28 05:37:05;;;;;;;0.60;0.60;;;3.80;99.90;;;;;;5137691;27;20089;-75
2022/01/28 05:39:31;;;;;;;0.60;0.60;;;3.70;99.90;;;;;;5138074;27;20050;-77
2022/01/28 05:41:56;;;;;;;0.60;0.60;;;3.70;99.90;;;;;;5137605;27;20068;-74
2022/01/28 05:44:22;;;;;;;0.60;0.60;;;3.60;99.90;;;;;;5137357;27;20042;-77
2022/01/28 05:46:49;;;;;;;0.60;0.60;;;3.60;99.90;;;;;;5137582;27;20483;-76
2022/01/28 05:49:15;;;;;;;0.60;0.60;;;3.60;99.90;;;;;;5137264;27;20055;-78
2022/01/28 05:51:42;;;;;;;0.60;0.60;;;3.50;99.90;;;;;;5137285;27;20062;-76
2022/01/28 05:54:07;;;;;;;0.60;0.60;;;3.50;99.90;;;;;;5137278;27;20039;-76
2022/01/28 05:56:33;;;;;;;0.60;0.60;;;3.70;99.90;;;;;;5137195;27;20416;-75
2022/01/28 05:58:59;;;;;;;0.52;0.52;;;3.40;99.90;;;;;;5136873;27;20043;-75
2022/01/28 06:01:25;;;;;;;0.50;0.50;;;3.30;99.90;;;;;;5137138;27;20043;-75
2022/01/28 06:03:51;;;;;;;0.60;0.60;;;3.30;99.90;;;;;;5137328;27;20035;-76
2022/01/28 06:06:22;;;;;;;0.60;0.60;;;3.30;99.90;;;;;;5136771;27;20475;-78
2022/01/28 06:08:50;;;;;;;0.60;0.60;;;3.40;99.90;;;;;;5137130;27;20398;-75
2022/01/28 06:11:16;;;;;;;1.05;0.75;;;3.20;99.90;;;;;;5136596;27;20129;-77
2022/01/28 06:13:42;;;;;;;0.60;0.60;;;3.20;99.90;;;;;;5136867;27;20513;-75
2022/01/28 06:16:09;;;;;;;0.60;0.60;;;3.20;99.90;;;;;;5136842;27;20086;-76
2022/01/28 06:18:36;;;;;;;0.60;0.60;;;3.20;99.90;;;;;;5136724;27;20054;-77
2022/01/28 06:21:02;;;;;;;0.60;0.60;;;3.20;99.90;;;;;;5136721;27;20094;-76
2022/01/28 06:23:28;;;;;;;0.60;0.60;;;3.30;99.90;;;;;;5135899;27;20031;-78
2022/01/28 06:25:53;;;;;;;0.60;0.60;;;4.10;99.90;;;;;;5136583;27;20095;-77
2022/01/28 06:28:19;;;;;;;0.60;0.60;;;3.40;99.90;;;;;;5136649;27;20491;-75
2022/01/28 06:30:44;;;;;;;0.60;0.60;;;3.40;99.90;;;;;;5136379;27;20074;-75
2022/01/28 06:33:14;;;;;;;0.60;0.60;;;3.50;99.90;;;;;;5136373;27;20039;-74
2022/01/28 06:35:42;;;;;;;0.60;0.60;;;3.50;99.90;;;;;;5136583;27;20436;-79
2022/01/28 06:38:08;;;;;;;0.60;0.60;;;3.60;99.90;;;;;;5136312;27;20086;-76
2022/01/28 06:40:34;;;;;;;0.85;0.85;;;3.70;99.90;;;;;;5136194;27;20090;-76
2022/01/28 06:42:59;;;;;;;0.60;0.60;;;3.80;99.90;;;;;;5136052;27;20046;-77
2022/01/28 06:45:25;;;;;;;0.60;0.60;;;3.80;99.90;;;;;;5136135;27;20039;-76
2022/01/28 06:47:51;;;;;;;0.60;0.60;;;3.90;99.90;;;;;;5136202;27;20086;-77
2022/01/28 06:50:16;;;;;;;0.60;0.60;;;3.90;99.90;;;;;;5136354;27;20475;-75
2022/01/28 06:52:42;;;;;;;0.60;0.60;;;4.00;99.90;;;;;;5136100;27;20035;-77
2022/01/28 06:55:10;;;;;;;0.67;0.67;;;4.00;99.90;;;;;;5135957;27;20054;-76
2022/01/28 06:57:36;;;;;;;0.55;0.55;;;4.00;99.90;;;;;;5135956;27;20277;-76
2022/01/28 07:00:04;;;;;;;0.50;0.50;;;4.10;99.90;;;;;;5117617;27;20049;-76
2022/01/28 07:02:30;;;;;;;3.13;1.80;;;4.20;99.90;;;;;;5135807;27;20043;-74
2022/01/28 07:04:55;;;;;;;2.05;1.95;;;4.20;99.90;;;;;;5135872;27;20043;-75
2022/01/28 07:07:22;;;;;;;0.63;0.63;;;4.20;99.90;;;;;;5135807;27;20046;-74
2022/01/28 07:09:49;;;;;;;0.90;0.60;;;4.30;99.90;;;;;;5135710;27;20550;-74
2022/01/28 07:12:15;;;;;;;0.60;0.60;;;4.30;99.90;;;;;;5135715;27;20045;-73
2022/01/28 07:14:41;;;;;;;0.60;0.60;;;4.30;99.90;;;;;;5135679;27;20043;-72
2022/01/28 07:17:06;;;;;;;0.60;0.60;;;4.30;99.90;;;;;;5135308;27;20043;-74
2022/01/28 07:19:32;;;;;;;0.60;0.60;;;4.50;99.90;;;;;;5135490;27;20082;-74
2022/01/28 07:21:58;;;;;;;0.60;0.60;;;4.30;99.90;;;;;;5135518;27;20074;-75
2022/01/28 07:24:26;;;;;;;0.60;0.60;;;4.30;99.90;;;;;;5135027;27;20054;-75
2022/01/28 07:26:51;;;;;;;0.60;0.60;;;4.30;99.90;;;;;;5135269;27;20043;-74
2022/01/28 07:29:17;;;;;;;0.88;0.88;;;4.30;99.90;;;;;;5135389;27;20429;-74
2022/01/28 07:31:43;;;;;;;0.60;0.60;;;4.20;99.90;;;;;;5100429;27;20047;-73
2022/01/28 07:34:09;;;;;;;2.47;2.28;;;4.20;99.90;;;;;;5135213;27;20620;-73
2022/01/28 07:36:35;;;;;;;1.02;1.02;;;4.20;99.90;;;;;;5135263;27;20122;-73
2022/01/28 07:39:05;;;;;;;0.77;0.77;;;4.10;99.90;;;;;;5135135;27;20046;-73
2022/01/28 07:41:31;;;;;;;0.60;0.60;;;4.10;99.90;;;;;;5135357;27;20069;-74
2022/01/28 07:43:57;;;;;;;0.55;0.55;;;4.00;99.90;;;;;;5128238;27;20032;-72
2022/01/28 07:46:25;;;;;;;0.60;0.60;;;4.40;99.90;;;;;;5123012;27;20146;-74
2022/01/28 07:48:51;;;;;;;0.60;0.60;;;3.90;99.90;;;;;;5114767;27;20498;-75
2022/01/28 07:51:17;;;;;;;0.70;0.70;;;3.90;99.90;;;;;;5135093;27;20050;-76
2022/01/28 07:53:42;;;;;;;0.60;0.60;;;3.90;99.90;;;;;;5116640;27;20047;-73
2022/01/28 07:56:08;;;;;;;0.52;0.52;;;3.80;99.90;;;;;;5135383;27;20043;-72
2022/01/28 07:58:34;;;;;;;0.60;0.60;;;3.80;99.90;;;;;;5135321;27;20042;-72
2022/01/28 08:01:00;;;;;;;0.50;0.50;;;3.80;99.90;;;;;;5134886;27;20099;-72
2022/01/28 08:03:25;;;;;;;0.60;0.60;;;3.80;99.90;;;;;;5135149;27;20096;-74
2022/01/28 08:05:51;;;;;;;2.15;1.75;;;3.80;99.90;;;;;;5134846;27;20039;-75
2022/01/28 08:08:19;;;;;;;0.60;0.60;;;3.70;99.90;;;;;;5120999;27;20055;-75
2022/01/28 08:10:46;;;;;;;0.60;0.60;;;3.60;99.90;;;;;;5125063;27;20056;-75
2022/01/28 08:13:12;;;;;;;1.50;1.40;;;3.60;99.90;;;;;;5121095;27;20055;-76
2022/01/28 08:15:39;;;;;;;0.60;0.60;;;3.50;99.90;;;;;;5102536;28;20103;-74
2022/01/28 08:18:05;;;;;;;0.60;0.60;;;3.50;99.90;;;;;;5134396;28;20116;-74
2022/01/28 08:20:31;;;;;;;0.60;0.60;;;3.40;99.90;;;;;;5134249;28;20051;-75
2022/01/28 08:22:57;;;;;;;0.60;0.60;;;3.40;99.90;;;;;;5134039;28;20130;-74
2022/01/28 08:25:24;;;;;;;0.60;0.60;;;3.40;99.90;;;;;;5134386;28;20192;-75
2022/01/28 08:27:50;;;;;;;;;;;3.40;99.90;;;;;;5116681;28;20402;-74
2022/01/28 08:30:19;;;;;;;0.60;0.60;;;3.40;99.90;;;;;;5134426;28;19927;-75
2022/01/28 08:32:45;;;;;;;0.60;0.60;;;3.50;99.90;;;;;;5134495;28;20064;-75
2022/01/28 08:35:11;;;;;;;0.50;0.50;;;3.50;99.90;;;;;;5134621;28;20487;-74
2022/01/28 08:37:37;;;;;;;0.60;0.60;;;3.60;99.90;;;;;;5133827;28;20280;-75
2022/01/28 08:40:05;;;;;;;0.60;0.60;;;3.80;99.90;;;;;;5134333;28;20163;-72
2022/01/28 08:42:31;;;;;;;0.82;0.82;;;3.80;99.90;;;;;;5134257;28;20047;-73
2022/01/28 08:44:57;;;;;;;0.60;0.60;;;4.00;99.90;;;;;;5134151;28;20382;-73
2022/01/28 08:47:22;;;;;;;0.60;0.60;;;3.90;99.90;;;;;;5135421;27;20127;-73
2022/01/28 08:49:48;;;;;;;0.60;0.60;;;4.00;99.90;;;;;;5138436;27;20088;-75
2022/01/28 08:52:14;;;;;;;0.60;0.60;;;4.10;99.90;;;;;;5137989;27;20047;-73
2022/01/28 08:54:41;;;;;;;0.60;0.60;;;4.10;99.90;;;;;;5138193;27;20050;-73
2022/01/28 08:57:07;;;;;;;0.50;0.50;;;4.20;99.90;;;;;;5138199;27;20047;-73
2022/01/28 08:59:32;;;;;;;2.92;0.85;;;4.30;99.90;;;;;;5119723;27;20385;-73
2022/01/28 09:01:58;;;;;;;0.50;0.50;;;4.30;99.90;;;;;;5138205;27;20043;-73
2022/01/28 09:04:24;;;;;;;0.57;0.57;;;4.30;99.90;;;;;;5137995;27;20039;-72
2022/01/28 09:06:49;;;;;;;2.05;1.02;;;4.30;99.90;;;;;;5102596;27;20043;-72
2022/01/28 09:09:18;;;;;;;0.60;0.60;;;4.30;99.90;;;;;;5138208;27;20052;-73
2022/01/28 09:11:53;;;;;;;0.60;0.60;;;4.30;99.90;;;;;;5137957;27;20086;-72
2022/01/28 09:14:22;;;;;;;0.60;0.60;;;4.30;99.90;;;;;;5138184;27;20054;-73
2022/01/28 09:16:48;;;;;;;0.55;0.55;;;4.20;99.90;;;;;;5137989;27;20039;-72
2022/01/28 09:19:14;;;;;;;0.60;0.60;;;4.30;99.90;;;;;;5137522;27;20050;-73
2022/01/28 09:21:40;;;;;;;0.60;0.60;;;4.30;99.90;;;;;;5137132;27;20073;-73
2022/01/28 09:24:06;;;;;;;0.60;0.60;;;4.30;99.90;;;;;;5137380;27;20792;-73
2022/01/28 09:26:32;;;;;;;0.60;0.60;;;4.30;99.90;;;;;;5137532;27;20043;-72
2022/01/28 09:28:58;;;;;;;0.60;0.60;;;4.30;99.90;;;;;;5137465;27;20126;-73
2022/01/28 09:31:23;;;;;;;0.60;0.60;;;4.40;99.90;;;;;;5138011;27;20043;-74
2022/01/28 09:33:49;;;;;;;0.60;0.60;;;4.50;99.90;;;;;;5137247;27;20088;-73
2022/01/28 09:36:15;;;;;;;0.60;0.60;;;4.60;99.90;;;;;;5137174;27;20035;-74
2022/01/28 09:38:40;;;;;;;0.70;0.70;;;4.80;99.90;;;;;;5119400;27;20046;-74
2022/01/28 09:41:10;;;;;;;0.80;0.50;;;4.90;99.90;;;;;;5137430;27;20436;-74
2022/01/28 09:43:39;;;;;;;0.60;0.60;;;4.90;99.90;;;;;;5137111;27;20558;-71
2022/01/28 09:46:05;;;;;;;0.60;0.60;;;5.00;99.90;;;;;;5137233;27;20039;-71
2022/01/28 09:48:31;;;;;;;0.60;0.60;;;5.00;99.90;;;;;;5136775;27;20097;-71
2022/01/28 09:51:01;;;;;;;0.50;0.50;;;5.10;99.90;;;;;;5136885;27;20039;-70
2022/01/28 09:53:27;;;;;;;0.50;0.50;;;5.30;99.90;;;;;;5137042;27;20491;-71
2022/01/28 09:55:53;;;;;;;1.13;1.13;;;5.40;99.90;;;;;;5137107;27;20049;-71
2022/01/28 09:58:19;;;;;;;0.55;0.55;;;5.40;99.90;;;;;;5135976;27;20047;-71
2022/01/28 10:00:45;;;;;;;0.60;0.60;;;5.50;99.90;;;;;;5136739;27;20039;-73
2022/01/28 10:03:13;;;;;;;0.60;0.60;;;5.60;99.90;;;;;;5136874;27;20043;-72
2022/01/28 10:05:44;;;;;;;0.50;0.50;;;5.60;99.90;;;;;;5136776;27;20043;-72
2022/01/28 10:08:17;;;;;;;0.50;0.50;;;6.40;99.90;;;;;;5136814;27;20035;-77
2022/01/28 10:11:05;;;;;;;0.50;0.50;;;5.80;99.90;;;;;;5136788;27;20047;-74
2022/01/28 10:16:15;;;;;;;0.60;0.60;;;5.90;99.90;;;;;;5136621;27;20375;-75
2022/01/28 10:18:50;;;;;;;0.50;0.50;;;5.90;99.90;;;;;;5136775;27;20053;-73
2022/01/28 10:21:26;;;;;;;0.60;0.60;;;5.90;99.90;;;;;;5136597;27;20043;-74
2022/01/28 10:24:12;;;;;;;0.60;0.60;;;6.00;99.90;;;;;;5136487;27;20039;-74
2022/01/28 10:26:49;;;;;;;0.50;0.50;;;6.00;99.90;;;;;;5136517;27;20035;-75
2022/01/28 10:29:18;;;;;;;0.57;0.57;;;6.10;99.90;;;;;;5118320;27;20047;-74
2022/01/28 10:31:48;;;;;;;0.50;0.50;;;6.10;99.90;;;;;;5136233;27;20184;-76
2022/01/28 10:34:15;;;;;;;0.50;0.50;;;6.10;99.90;;;;;;5136316;27;20043;-76
2022/01/28 10:36:41;;;;;;;0.50;0.50;;;6.10;99.90;;;;;;5117685;27;20487;-75
2022/01/28 10:39:17;;;;;;;0.50;0.50;;;6.10;99.90;;;;;;5136365;27;20046;-75
2022/01/28 10:41:51;;;;;;;0.50;0.50;;;6.10;99.90;;;;;;5136319;27;20043;-75
2022/01/28 10:44:17;;;;;;;0.50;0.50;;;6.10;99.90;;;;;;5136028;27;20126;-73
2022/01/28 10:46:51;;;;;;;1.05;1.05;;;6.10;99.90;;;;;;5136051;27;20074;-72
2022/01/28 10:49:17;;;;;;;1.25;1.15;;;6.10;99.90;;;;;;5135901;27;20059;-74
2022/01/28 10:51:49;;;;;;;0.50;0.50;;;6.20;99.90;;;;;;5136060;27;20103;-75
2022/01/28 10:54:20;;;;;;;0.50;0.50;;;6.20;99.90;;;;;;5135836;27;20060;-73
2022/01/28 10:56:56;;;;;;;2.05;1.95;;;6.20;99.90;;;;;;5135704;27;20087;-75
2022/01/28 10:59:28;;;;;;;0.50;0.50;;;6.20;99.90;;;;;;5117826;27;20459;-73
2022/01/28 11:01:54;;;;;;;0.50;0.50;;;6.30;99.90;;;;;;5135649;27;20054;-73
2022/01/28 11:04:21;;;;;;;0.60;0.60;;;6.40;99.90;;;;;;5135576;27;20035;-73
2022/01/28 11:06:49;;;;;;;1.77;1.67;;;6.40;99.90;;;;;;5135880;27;20047;-75
2022/01/28 11:09:17;;;;;;;0.60;0.60;;;6.50;99.90;;;;;;5135531;27;20080;-72
2022/01/28 11:11:44;;;;;;;0.50;0.50;;;6.50;99.90;;;;;;5135043;27;20506;-73
2022/01/28 11:14:10;;;;;;;0.50;0.50;;;6.50;99.90;;;;;;5135639;27;20052;-74
2022/01/28 11:16:36;;;;;;;0.50;0.50;;;6.50;99.90;;;;;;5135091;27;20047;-73
2022/01/28 11:19:04;;;;;;;0.60;0.60;;;6.60;99.90;;;;;;5117094;27;20064;-74
2022/01/28 11:21:48;;;;;;;0.50;0.50;;;6.60;99.90;;;;;;5135358;27;20039;-73
2022/01/28 11:24:43;;;;;;;0.63;0.63;;;6.70;99.90;;;;;;5135351;27;20049;-76
2022/01/28 11:27:37;;;;;;;0.50;0.50;;;6.80;99.90;;;;;;5135364;27;20035;-75
2022/01/28 11:30:19;;;;;;;0.50;0.50;;;6.90;99.90;;;;;;5131509;27;20098;-76
2022/01/28 11:32:59;;;;;;;0.60;0.60;;;6.90;99.90;;;;;;5135156;27;20043;-74
2022/01/28 11:35:26;;;;;;;0.60;0.60;;;7.00;99.90;;;;;;5135022;27;20047;-75
2022/01/28 11:37:54;;;;;;;0.50;0.50;;;7.10;99.90;;;;;;5135145;27;20047;-75
2022/01/28 11:40:19;;;;;;;0.50;0.50;;;7.10;99.90;;;;;;5135189;27;20047;-74
2022/01/28 11:42:45;;;;;;;0.50;0.50;;;7.40;99.90;;;;;;5135065;27;20049;-75
2022/01/28 11:45:12;;;;;;;0.50;0.50;;;7.20;99.90;;;;;;5135146;27;20049;-75
2022/01/28 11:47:57;;;;;;;0.50;0.50;;;7.20;99.90;;;;;;5134871;27;20051;-74
2022/01/28 11:50:23;;;;;;;0.50;0.50;;;7.20;99.90;;;;;;5134178;27;20059;-73
2022/01/28 11:52:50;;;;;;;0.50;0.50;;;7.30;99.90;;;;;;5134930;27;20068;-74
2022/01/28 11:55:25;;;;;;;0.50;0.50;;;7.20;99.90;;;;;;5134883;27;20410;-75
2022/01/28 11:57:58;;;;;;;0.50;0.50;;;7.20;99.90;;;;;;5134578;27;20525;-73
2022/01/28 12:00:40;;;;;;;0.50;0.50;;;7.20;99.90;;;;;;5134496;27;20077;-75
2022/01/28 12:03:17;;;;;;;0.50;0.50;;;7.10;99.90;;;;;;5134827;27;20043;-74
2022/01/28 12:06:05;;;;;;;0.50;0.50;;;7.10;99.90;;;;;;5134767;27;20082;-74
2022/01/28 12:08:31;;;;;;;;;;;7.00;99.90;;;;;;5134968;27;20105;-74
2022/01/28 12:10:58;;;;;;;0.85;0.85;;;7.00;99.90;;;;;;5134490;27;20023;-75
2022/01/28 12:14:00;;;;;;;0.50;0.50;;;7.10;99.90;;;;;;5134655;27;20078;-74
2022/01/28 12:16:31;;;;;;;0.50;0.50;;;7.20;99.90;;;;;;5134411;27;20502;-75
2022/01/28 12:19:02;;;;;;;0.50;0.50;;;7.20;99.90;;;;;;5134595;28;20074;-74
2022/01/28 12:21:34;;;;;;;0.50;0.50;;;7.20;99.90;;;;;;5133333;27;20495;-75
2022/01/28 12:24:18;;;;;;;1.35;1.23;;;7.30;99.90;;;;;;5134367;28;20046;-74
2022/01/28 12:26:59;;;;;;;0.50;0.50;;;7.30;99.90;;;;;;5134395;28;20395;-75
2022/01/28 12:29:36;;;;;;;0.50;0.50;;;7.40;99.90;;;;;;5133997;28;20057;-74
2022/01/28 12:32:04;;;;;;;1.90;1.80;;;7.40;99.90;;;;;;5134645;28;20042;-73
2022/01/28 12:34:30;;;;;;;0.50;0.50;;;7.40;99.90;;;;;;5134351;28;20391;-74
2022/01/28 12:36:57;;;;;;;0.50;0.50;;;7.50;99.90;;;;;;5134390;28;20043;-76
2022/01/28 12:39:51;;;;;;;0.82;0.82;;;7.60;99.90;;;;;;5134212;28;20291;-75
2022/01/28 12:44:51;;;;;;;0.50;0.50;;;7.50;99.90;;;;;;5134174;28;20047;-75
2022/01/28 12:47:17;;;;;;;0.50;0.50;;;7.50;99.90;;;;;;5134175;28;20043;-73
2022/01/28 12:49:43;;;;;;;0.50;0.50;;;7.40;99.90;;;;;;5134226;28;20058;-75
2022/01/28 12:52:09;;;;;;;0.50;0.50;;;7.50;99.90;;;;;;5134037;28;20047;-75
2022/01/28 12:54:39;;;;;;;0.50;0.50;;;7.50;99.90;;;;;;5134163;28;20047;-76
2022/01/28 12:57:07;;;;;;;0.50;0.50;;;7.50;99.90;;;;;;5134926;28;20055;-74
2022/01/28 12:59:32;;;;;;;0.50;0.50;;;7.40;99.90;;;;;;5133948;28;20042;-74
2022/01/28 13:01:58;;;;;;;0.50;0.50;;;7.40;99.90;;;;;;5134321;28;20039;-76
2022/01/28 13:04:36;;;;;;;0.50;0.50;;;7.50;99.90;;;;;;5115714;28;20470;-75
2022/01/28 13:10:07;;;;;;;0.50;0.50;;;7.60;99.90;;;;;;5050347;28;20060;-75
2022/01/28 13:12:33;;;;;;;0.50;0.50;;;7.50;99.90;;;;;;5050500;28;20045;-74
2022/01/28 13:15:13;;;;;;;0.60;0.60;;;7.40;99.90;;;;;;5089110;28;20074;-75
2022/01/28 13:17:40;;;;;;;0.50;0.50;;;7.50;99.90;;;;;;5133860;28;20050;-75
2022/01/28 13:20:09;;;;;;;0.50;0.50;;;7.40;99.90;;;;;;5133934;28;20054;-75
2022/01/28 13:22:37;;;;;;;0.70;0.70;;;7.30;99.90;;;;;;5133937;28;20043;-76
2022/01/28 13:25:16;;;;;;;0.70;0.70;;;7.30;99.90;;;;;;5133857;28;20042;-75
2022/01/28 13:27:48;;;;;;;0.50;0.50;;;7.30;99.90;;;;;;5133718;28;20058;-75
2022/01/28 13:30:15;;;;;;;0.50;0.50;;;7.20;99.90;;;;;;5133501;28;20551;-74
2022/01/28 13:32:45;;;;;;;0.60;0.60;;;7.20;99.90;;;;;;5134247;27;20058;-75
2022/01/28 13:35:24;;;;;;;0.50;0.50;;;7.20;99.90;;;;;;5137627;27;20039;-76
2022/01/28 13:38:00;;;;;;;0.50;0.50;;;7.10;99.90;;;;;;5137644;27;20512;-74
2022/01/28 13:40:34;;;;;;;0.50;0.50;;;7.10;99.90;;;;;;5137559;27;20142;-76
2022/01/28 13:43:09;;;;;;;0.47;0.47;;;7.10;99.90;;;;;;5137130;27;20050;-74
2022/01/28 13:46:05;;;;;;;0.60;0.60;;;7.00;99.90;;;;;;5137132;27;20047;-73
2022/01/28 13:48:34;;;;;;;0.70;0.70;;;7.00;99.90;;;;;;5137020;27;20059;-75
2022/01/28 13:51:05;;;;;;;0.50;0.50;;;7.00;99.90;;;;;;5137229;27;20107;-75
2022/01/28 13:56:29;;;;;;;0.50;0.50;;;6.90;99.90;;;;;;5137122;27;20047;-74
2022/01/28 13:58:55;;;;;;;0.50;0.50;;;6.90;99.90;;;;;;5137027;27;20116;-73
2022/01/28 14:01:23;;;;;;;0.50;0.50;;;6.90;99.90;;;;;;5136871;27;20051;-77
2022/01/28 14:04:00;;;;;;;0.80;0.80;;;6.90;99.90;;;;;;5136501;27;20103;-74
2022/01/28 14:06:32;;;;;;;0.50;0.50;;;7.00;99.90;;;;;;5136991;27;20047;-75
2022/01/28 14:09:11;;;;;;;0.50;0.50;;;7.00;99.90;;;;;;5118827;27;20395;-76
2022/01/28 14:11:58;;;;;;;0.50;0.50;;;7.10;99.90;;;;;;5136697;27;20043;-74
2022/01/28 14:14:43;;;;;;;0.50;0.50;;;7.10;99.90;;;;;;5136783;27;20082;-74
2022/01/28 14:17:10;;;;;;;2.35;2.15;;;7.30;99.90;;;;;;5136723;27;20380;-75
2022/01/28 14:19:38;;;;;;;0.50;0.50;;;7.00;99.90;;;;;;5136637;27;20439;-74
2022/01/28 14:22:08;;;;;;;0.50;0.50;;;7.00;99.90;;;;;;5136305;27;20390;-74
2022/01/28 14:24:36;;;;;;;0.43;0.43;;;7.00;99.90;;;;;;5136319;27;20434;-73